Ana Sayfa
METAR-TAF:

METAR-TAF

Havaalanları :

Loei, Tayland

Enlem: 17-27N, Boylam: 101-44E, yükseklik: 253 m

Güncel hava durumu gözlemi

Rapor saat 12:00 UTC de 3 saat ve 19 dakika önce yapıldı.
Sakin rüzgar
Sıcaklık 20°C
Nem 68%
Basınç 1011 hPa
Görüş mesafesi: 9000 m

METAR: VTUL 211200Z 00000KT 9000 NSC 20/14 Q1011 NOSIG

Saat: 22:19 (15:19 UTC)

Tahmin

Rapor saat 11:00 UTC de 4 saat ve 19 dakika önce yapıldı.
Ayın 21'si saat 12 UTC'den ayın 22'si saat 12 UTC'ye kadar geçerli Tahmin
Rüzgar doğudan 5 kt
Görüş mesafesi: 7000 m
Dönüşüyor
ayın 21'si saat 22 UTC'den ayın 21'si saat 24 UTC'ye kadar
Görüş mesafesi: 4000 m
Pus
Dönüşüyor
ayın 22'si saat 01 UTC'den ayın 22'si saat 03 UTC'ye kadar
Görüş mesafesi: 7000 m

TAF: VTUL 211100Z 2112/2212 10005KT 7000 NSC BECMG 2122/2124 4000 BR BECMG 2201/2203 7000 NSW

4.000'den fazla havaalanı için hava durumu gözlemleri ve tahminleri (METAR ve TAF raporları).

Kullanılabilir istasyonlar harita üzerinde sarı ve kırmızı noktalarla gösterilir.

İstasyonun adını görmek için fareyi noktanın üzerinde gezdirin.

Sonrasında hava gözlem ve tahminlerini görmek için tıklayın.

Haritayı değiştirmek için: yaklaştırmak için siyah artı işaretli yeşil düğmeye ve uzaklaştırmak için de eksi işaretli düğmeye hızla tıklayın; bitişik haritalar için yeşil okları kullanın.


METAR-TAF: